Time;durP1;ratioP1;P1;durP2;ratioP2;P2;SDS_P1;SDS_P2;PMS_P1;PMS_P2;Temp;Humidity;BMP_temperature;BMP_pressure;BME280_temperature;BME280_humidity;BME280_pressure;Samples;Min_cycle;Max_cycle;Signal;HPM_P1;HPM_P2
2022/11/20 00:00:27;;;;;;;26.55;15.18;;;;;;;-1.11;93.33;101502.72;5041144;28;20385;-70
2022/11/20 00:02:52;;;;;;;26.42;15.30;;;;;;;-1.10;93.25;101517.00;5045462;28;20056;-70
2022/11/20 00:05:18;;;;;;;22.80;13.45;;;;;;;-1.23;92.95;101518.81;5026003;28;20029;-71
2022/11/20 00:07:43;;;;;;;22.48;14.77;;;;;;;-1.18;95.85;101508.63;5042347;28;20033;-70
2022/11/20 00:10:08;;;;;;;27.17;15.63;;;;;;;-1.20;95.54;101508.72;5039463;28;20038;-70
2022/11/20 00:12:34;;;;;;;24.20;14.63;;;;;;;-1.20;95.58;101511.41;5044321;28;20044;-70
2022/11/20 00:14:59;;;;;;;26.45;15.88;;;;;;;-1.23;95.81;101508.06;5046626;28;20496;-70
2022/11/20 00:17:25;;;;;;;28.02;16.70;;;;;;;-1.24;96.27;101507.19;5039732;28;20470;-71
2022/11/20 00:19:50;;;;;;;29.15;15.35;;;;;;;-1.25;96.04;101507.28;5042779;28;20148;-71
2022/11/20 00:22:15;;;;;;;26.10;15.68;;;;;;;-1.30;94.88;101504.09;5041964;28;20029;-71
2022/11/20 00:24:41;;;;;;;24.10;15.45;;;;;;;-1.33;96.53;101499.78;5043350;28;20662;-70
2022/11/20 00:27:06;;;;;;;23.10;14.77;;;;;;;-1.34;96.02;101502.59;5026548;28;20029;-71
2022/11/20 00:29:31;;;;;;;23.38;14.05;;;;;;;-1.36;96.45;101494.63;5043716;28;20037;-70
2022/11/20 00:31:57;;;;;;;25.88;15.55;;;;;;;-1.36;95.84;101500.00;5041218;28;20115;-69
2022/11/20 00:34:22;;;;;;;28.58;16.48;;;;;;;-1.41;96.30;101502.13;5036673;28;20024;-71
2022/11/20 00:36:47;;;;;;;24.58;16.13;;;;;;;-1.50;96.76;101501.91;5038126;28;20472;-70
2022/11/20 00:39:13;;;;;;;26.65;16.15;;;;;;;-1.51;96.91;101493.00;5021291;28;20025;-69
2022/11/20 00:41:38;;;;;;;26.63;16.65;;;;;;;-1.49;97.06;101499.13;5041362;28;20067;-70
2022/11/20 00:44:03;;;;;;;27.35;16.05;;;;;;;-1.50;97.59;101500.06;5019402;28;20033;-69
2022/11/20 00:46:29;;;;;;;25.98;14.95;;;;;;;-1.51;98.01;101494.84;5043808;28;20029;-70
2022/11/20 00:48:54;;;;;;;28.13;16.65;;;;;;;-1.51;98.37;101489.47;5044428;28;20361;-69
2022/11/20 00:51:22;;;;;;;30.98;15.43;;;;;;;-1.55;98.05;101486.09;5050605;28;20044;-70
2022/11/20 00:53:47;;;;;;;28.58;17.40;;;;;;;-1.55;98.05;101486.09;5046828;28;20028;-69
2022/11/20 00:56:15;;;;;;;26.45;16.65;;;;;;;-1.59;98.35;101481.94;5041435;28;20474;-72
2022/11/20 00:58:42;;;;;;;25.20;16.30;;;;;;;-1.62;97.92;101481.28;5026726;28;20039;-70
2022/11/20 01:01:11;;;;;;;28.33;15.18;;;;;;;-1.62;98.24;101500.06;5043481;28;20104;-70
2022/11/20 01:03:39;;;;;;;24.48;14.90;;;;;;;-1.64;98.18;101499.31;5042110;28;20726;-71
2022/11/20 01:06:16;;;;;;;27.95;16.30;;;;;;;-1.65;98.73;101494.91;5046273;28;20029;-71
2022/11/20 01:08:41;;;;;;;22.50;14.95;;;;;;;-1.63;98.46;101491.16;5028025;28;20471;-71
2022/11/20 01:11:15;;;;;;;24.92;14.32;;;;;;;-1.64;98.21;101499.31;5046862;28;20032;-71
2022/11/20 01:13:42;;;;;;;22.83;15.00;;;;;;;-1.67;98.33;101497.69;5045182;28;20033;-69
2022/11/20 01:16:32;;;;;;;26.65;15.93;;;;;;;-1.62;98.50;101508.97;5040426;28;20111;-69
2022/11/20 01:18:59;;;;;;;26.35;15.18;;;;;;;-1.65;97.98;101502.94;5034020;28;20076;-69
2022/11/20 01:21:27;;;;;;;24.67;15.20;;;;;;;-1.67;98.53;101507.59;5031290;28;20034;-69
2022/11/20 01:23:53;;;;;;;23.85;14.93;;;;;;;-1.70;97.85;101508.66;5045042;28;20469;-69
2022/11/20 01:26:21;;;;;;;25.03;15.47;;;;;;;-1.72;98.65;101489.06;5040398;28;20131;-69
2022/11/20 01:28:48;;;;;;;25.95;16.00;;;;;;;-1.73;99.04;101483.81;5042435;28;20022;-72
2022/11/20 01:31:16;;;;;;;22.73;12.25;;;;;;;-1.73;98.95;101484.69;5043608;28;20033;-71
2022/11/20 01:33:42;;;;;;;23.20;14.65;;;;;;;-1.78;99.28;101478.75;5048640;28;20150;-71
2022/11/20 01:36:08;;;;;;;23.43;14.70;;;;;;;-1.80;99.56;101483.38;5032702;28;20024;-70
2022/11/20 01:38:34;;;;;;;31.58;15.50;;;;;;;-1.81;99.95;101486.16;5043481;28;20048;-71
2022/11/20 01:40:59;;;;;;;25.83;14.85;;;;;;;-1.82;99.79;101481.75;5046242;28;20357;-70
2022/11/20 01:43:25;;;;;;;26.13;15.27;;;;;;;-1.83;98.97;101488.09;5042785;28;20040;-69
2022/11/20 01:46:19;;;;;;;23.63;14.30;;;;;;;-1.92;100.00;101480.66;5032448;28;20036;-71
2022/11/20 01:49:07;;;;;;;21.52;14.20;;;;;;;-1.89;100.00;101486.69;5044468;28;20025;-70
2022/11/20 01:52:09;;;;;;;22.35;14.27;;;;;;;-1.90;99.96;101474.22;5026274;28;20025;-70
2022/11/20 01:54:42;;;;;;;24.85;14.75;;;;;;;-1.88;100.00;101477.66;5028441;28;20124;-71
2022/11/20 01:57:10;;;;;;;25.05;15.30;;;;;;;-1.93;100.00;101477.09;5020734;28;20045;-70
2022/11/20 01:59:44;;;;;;;24.08;14.43;;;;;;;-1.88;100.00;101474.97;5043178;28;20076;-70
2022/11/20 02:02:09;;;;;;;25.80;15.13;;;;;;;-1.84;100.00;101471.13;5041721;28;20116;-74
2022/11/20 02:04:35;;;;;;;24.20;14.45;;;;;;;-1.90;100.00;101476.91;5043250;28;20511;-74
2022/11/20 02:07:02;;;;;;;24.58;14.90;;;;;;;-1.94;100.00;101474.53;5048320;28;20064;-74
2022/11/20 02:09:28;;;;;;;23.42;13.90;;;;;;;-1.99;100.00;101482.03;5042928;28;20136;-72
2022/11/20 02:11:54;;;;;;;25.15;14.68;;;;;;;-1.97;100.00;101480.97;5041004;28;20091;-74
2022/11/20 02:14:22;;;;;;;25.92;15.13;;;;;;;-1.96;100.00;101485.38;5027655;28;20032;-74
2022/11/20 02:16:49;;;;;;;26.33;14.98;;;;;;;-1.98;100.00;101473.03;5043636;28;20032;-74
2022/11/20 02:19:17;;;;;;;;;;;;;;;-1.96;100.00;101465.72;5041750;28;20026;-74
2022/11/20 02:21:48;;;;;;;25.67;14.30;;;;;;;-1.94;100.00;101472.69;5040145;28;19917;-75
2022/11/20 02:24:17;;;;;;;23.65;14.82;;;;;;;-1.96;100.00;101471.97;5042742;28;20045;-74
2022/11/20 02:27:00;;;;;;;24.35;14.73;;;;;;;-1.95;100.00;101473.66;5030413;28;20437;-74
2022/11/20 02:30:00;;;;;;;21.70;14.60;;;;;;;-1.97;100.00;101464.00;5041827;28;20025;-74
2022/11/20 02:32:34;;;;;;;23.50;14.15;;;;;;;-1.97;100.00;101470.25;5025546;28;20037;-75
2022/11/20 02:35:30;;;;;;;25.15;15.15;;;;;;;-2.02;100.00;101468.81;5039297;28;20048;-74
2022/11/20 02:37:58;;;;;;;27.98;15.57;;;;;;;-2.02;100.00;101458.94;5041164;28;20500;-74
2022/11/20 02:40:24;;;;;;;23.55;13.30;;;;;;;-2.01;100.00;101457.09;5029344;28;20477;-74
2022/11/20 02:42:56;;;;;;;23.55;13.68;;;;;;;-2.03;100.00;101465.25;5024003;28;20160;-74
2022/11/20 02:45:22;;;;;;;23.75;14.63;;;;;;;-2.01;100.00;101462.47;5042964;28;20029;-73
2022/11/20 02:47:48;;;;;;;26.85;14.45;;;;;;;-2.02;100.00;101450.91;5045029;28;20025;-74
2022/11/20 02:50:13;;;;;;;24.92;13.43;;;;;;;-2.07;100.00;101453.03;5035066;28;20055;-74
2022/11/20 02:52:39;;;;;;;25.23;15.38;;;;;;;-2.11;100.00;101438.09;5043279;28;20029;-75
2022/11/20 02:55:05;;;;;;;23.58;15.57;;;;;;;-2.10;100.00;101436.28;5044698;28;20606;-74
2022/11/20 02:57:30;;;;;;;24.67;15.88;;;;;;;-2.09;100.00;101441.53;5033966;28;20029;-74
2022/11/20 02:59:55;;;;;;;23.90;14.77;;;;;;;-2.20;100.00;101443.22;5049228;28;20037;-74
2022/11/20 03:02:21;;;;;;;23.27;14.90;;;;;;;-2.21;100.00;101436.97;5041234;28;20109;-73
2022/11/20 03:04:46;;;;;;;26.35;14.30;;;;;;;-2.24;100.00;101433.66;5040916;28;20425;-74
2022/11/20 03:07:11;;;;;;;23.05;14.02;;;;;;;-2.25;100.00;101435.47;5041738;28;20382;-73
2022/11/20 03:09:36;;;;;;;23.80;15.15;;;;;;;-2.25;100.00;101431.94;5042118;28;20452;-74
2022/11/20 03:12:02;;;;;;;23.92;15.00;;;;;;;-2.23;100.00;101430.88;5045096;28;20489;-74
2022/11/20 03:14:27;;;;;;;22.98;14.35;;;;;;;-2.21;100.00;101430.75;5038930;28;20032;-74
2022/11/20 03:16:53;;;;;;;26.05;15.40;;;;;;;-2.24;100.00;101425.59;5039342;28;20388;-73
2022/11/20 03:19:18;;;;;;;28.80;15.82;;;;;;;-2.24;100.00;101421.13;5045513;28;20048;-73
2022/11/20 03:21:43;;;;;;;25.08;16.17;;;;;;;-2.23;100.00;101411.22;5039802;28;20487;-74
2022/11/20 03:24:09;;;;;;;26.30;14.98;;;;;;;-2.24;100.00;101405.03;5042454;28;20128;-74
2022/11/20 03:26:34;;;;;;;25.83;15.13;;;;;;;-2.20;100.00;101408.34;5042703;28;20056;-74
2022/11/20 03:29:02;;;;;;;26.38;15.90;;;;;;;-2.23;100.00;101413.91;5044439;28;20485;-73
2022/11/20 03:31:30;;;;;;;22.95;13.88;;;;;;;-2.22;100.00;101411.13;5045406;28;20026;-74
2022/11/20 03:33:57;;;;;;;26.27;15.52;;;;;;;-2.22;100.00;101407.56;5045388;28;20329;-74
2022/11/20 03:36:23;;;;;;;25.95;15.38;;;;;;;-2.22;100.00;101411.13;5026200;28;20036;-74
2022/11/20 03:38:48;;;;;;;25.35;14.85;;;;;;;-2.24;100.00;101402.34;5039127;28;20488;-73
2022/11/20 03:41:19;;;;;;;23.10;14.43;;;;;;;-2.24;100.00;101406.84;5025922;28;20473;-73
2022/11/20 03:43:49;;;;;;;25.90;14.50;;;;;;;-2.26;100.00;101401.56;5040150;28;20028;-74
2022/11/20 03:46:15;;;;;;;24.95;15.55;;;;;;;-2.25;100.00;101397.91;5040025;28;20025;-74
2022/11/20 03:48:40;;;;;;;22.40;14.43;;;;;;;-2.24;100.00;101396.97;5044527;28;20035;-74
2022/11/20 03:51:08;;;;;;;23.38;14.65;;;;;;;-2.27;100.00;101399.84;5041811;28;20124;-74
2022/11/20 03:53:33;;;;;;;30.33;15.60;;;;;;;-2.29;100.00;101401.78;5023855;28;20029;-74
2022/11/20 03:55:58;;;;;;;23.95;13.82;;;;;;;-2.29;100.00;101401.78;5038777;28;20115;-74
2022/11/20 03:58:24;;;;;;;28.42;15.90;;;;;;;-2.29;100.00;101392.88;5039993;28;20025;-73
2022/11/20 04:00:49;;;;;;;25.23;14.82;;;;;;;-2.34;100.00;101390.50;5027120;28;20115;-74
2022/11/20 04:03:14;;;;;;;30.65;15.48;;;;;;;-2.35;100.00;101382.56;5038485;28;20025;-73
2022/11/20 04:05:39;;;;;;;22.17;15.07;;;;;;;-2.36;100.00;101389.72;5042279;28;20040;-74
2022/11/20 04:08:05;;;;;;;23.33;14.45;;;;;;;-2.35;100.00;101378.03;5044262;28;20044;-74
2022/11/20 04:10:30;;;;;;;24.67;14.73;;;;;;;-2.36;100.00;101375.47;5035055;28;20045;-74
2022/11/20 04:12:56;;;;;;;22.90;14.35;;;;;;;-2.42;100.00;101370.53;5041521;28;20440;-74
2022/11/20 04:15:21;;;;;;;23.23;15.65;;;;;;;-2.38;100.00;101370.22;5040860;28;20117;-73
2022/11/20 04:17:46;;;;;;;24.92;15.20;;;;;;;-2.43;100.00;101363.41;5041940;28;20025;-73
2022/11/20 04:20:12;;;;;;;23.17;14.52;;;;;;;-2.42;100.00;101354.44;5036995;28;20094;-73
2022/11/20 04:22:37;;;;;;;27.02;15.80;;;;;;;-2.44;100.00;101345.63;5042481;28;20033;-73
2022/11/20 04:25:03;;;;;;;24.83;15.30;;;;;;;-2.39;100.00;101349.72;5021029;28;20029;-73
2022/11/20 04:27:30;;;;;;;26.33;15.15;;;;;;;-2.41;100.00;101348.94;5040885;28;20036;-73
2022/11/20 04:29:55;;;;;;;24.38;15.10;;;;;;;-2.44;100.00;101353.66;5045632;28;20048;-74
2022/11/20 04:32:20;;;;;;;26.80;14.77;;;;;;;-2.44;100.00;101356.34;5043891;28;20039;-73
2022/11/20 04:34:45;;;;;;;25.27;15.00;;;;;;;-2.46;100.00;101358.28;5021712;28;20436;-74
2022/11/20 04:37:11;;;;;;;25.35;15.20;;;;;;;-2.49;100.00;101356.66;5038433;28;20124;-73
2022/11/20 04:39:36;;;;;;;21.83;14.68;;;;;;;-2.54;100.00;101350.75;5038159;28;20048;-72
2022/11/20 04:44:45;;;;;;;29.25;17.25;;;;;;;-2.53;100.00;101352.47;5043999;28;20407;-74
2022/11/20 04:47:10;;;;;;;24.00;15.02;;;;;;;-2.50;100.00;101357.63;5038732;28;20037;-73
2022/11/20 04:49:35;;;;;;;22.50;14.63;;;;;;;-2.54;100.00;101349.88;5042034;28;20029;-73
2022/11/20 04:52:01;;;;;;;21.98;15.45;;;;;;;-2.54;100.00;101349.88;5036712;28;20119;-74
2022/11/20 04:54:26;;;;;;;25.23;16.00;;;;;;;-2.57;100.00;101353.63;5038341;28;20408;-73
2022/11/20 04:56:51;;;;;;;24.30;15.48;;;;;;;-2.56;100.00;101357.16;5043346;28;20106;-73
2022/11/20 04:59:17;;;;;;;22.42;14.88;;;;;;;-2.55;100.00;101354.38;5022884;28;20172;-73
2022/11/20 05:01:42;;;;;;;23.10;15.10;;;;;;;-2.56;100.00;101344.63;5037167;28;20461;-74
2022/11/20 05:04:07;;;;;;;27.98;15.45;;;;;;;-2.54;100.00;101333.78;5026039;28;20029;-73
2022/11/20 05:06:33;;;;;;;26.75;16.52;;;;;;;-2.54;100.00;101342.69;5039310;28;20037;-74
2022/11/20 05:08:58;;;;;;;22.80;14.35;;;;;;;-2.57;100.00;101336.69;5040206;28;20116;-74
2022/11/20 05:11:24;;;;;;;28.15;16.67;;;;;;;-2.56;100.00;101349.13;5042761;28;20120;-73
2022/11/20 05:13:51;;;;;;;24.85;15.20;;;;;;;-2.54;100.00;101352.56;5042157;28;20108;-74
2022/11/20 05:16:22;;;;;;;22.02;14.68;;;;;;;-2.61;100.00;101343.22;5021424;28;20489;-74
2022/11/20 05:18:47;;;;;;;24.98;15.75;;;;;;;-2.59;100.00;101350.19;5040402;28;20029;-74
2022/11/20 05:21:14;;;;;;;24.15;15.50;;;;;;;-2.55;100.00;101354.38;5036882;28;20422;-73
2022/11/20 05:23:40;;;;;;;25.10;15.18;;;;;;;-2.52;100.00;101354.16;5034282;28;20030;-74
2022/11/20 05:26:07;;;;;;;26.03;15.87;;;;;;;-2.53;100.00;101357.81;5039523;28;20084;-73
2022/11/20 05:28:33;;;;;;;27.52;16.08;;;;;;;-2.47;100.00;101359.25;5041385;28;20083;-74
2022/11/20 05:31:10;;;;;;;26.25;15.50;;;;;;;-2.49;100.00;101362.03;5037843;28;20032;-73
2022/11/20 05:33:37;;;;;;;22.73;14.60;;;;;;;-2.50;100.00;101357.63;5034529;28;20051;-73
2022/11/20 05:36:03;;;;;;;28.55;15.95;;;;;;;-2.51;100.00;101350.53;5044795;28;20457;-73
2022/11/20 05:38:29;;;;;;;21.55;14.55;;;;;;;-2.54;100.00;101349.88;5043173;28;20619;-74
2022/11/20 05:40:54;;;;;;;22.65;13.90;;;;;;;-2.53;100.00;101355.13;5047555;28;20103;-73
2022/11/20 05:43:19;;;;;;;28.73;16.30;;;;;;;-2.65;100.00;101353.28;5023493;28;20034;-74
2022/11/20 05:45:54;;;;;;;29.38;15.80;;;;;;;-2.59;100.00;101341.28;5044408;28;20053;-74
2022/11/20 05:48:20;;;;;;;24.45;14.82;;;;;;;-2.57;100.00;101339.38;5044152;28;20037;-74
2022/11/20 05:50:46;;;;;;;27.33;15.52;;;;;;;-2.62;100.00;101339.66;5043443;28;20033;-73
2022/11/20 05:53:12;;;;;;;25.20;15.95;;;;;;;-2.57;100.00;101337.53;5044264;28;20041;-73
2022/11/20 05:55:37;;;;;;;24.00;15.10;;;;;;;-2.50;100.00;101332.63;5047472;28;20040;-72
2022/11/20 05:58:02;;;;;;;28.40;15.82;;;;;;;-2.43;100.00;101332.13;5043439;28;20103;-72
2022/11/20 06:00:28;;;;;;;24.73;15.80;;;;;;;-2.44;100.00;101332.22;5042809;28;20029;-72
2022/11/20 06:02:53;;;;;;;27.65;16.35;;;;;;;-2.41;100.00;101324.81;5038768;28;20049;-73
2022/11/20 06:05:18;;;;;;;27.23;16.02;;;;;;;-2.36;100.00;101322.69;5039134;28;20072;-72
2022/11/20 06:07:44;;;;;;;26.45;14.38;;;;;;;-2.36;100.00;101316.47;5040642;28;20028;-73
2022/11/20 06:10:09;;;;;;;29.25;15.85;;;;;;;-2.40;100.00;101313.16;5043497;28;20030;-73
2022/11/20 06:12:35;;;;;;;27.58;16.05;;;;;;;-2.40;100.00;101315.84;5040633;28;20063;-73
2022/11/20 06:15:00;;;;;;;25.95;15.50;;;;;;;-2.43;100.00;101305.28;5037926;28;20397;-74
2022/11/20 06:17:26;;;;;;;23.10;14.65;;;;;;;-2.38;100.00;101297.81;5026572;28;20291;-73
2022/11/20 06:19:51;;;;;;;23.40;15.30;;;;;;;-2.36;100.00;101295.88;5046393;28;20400;-73
2022/11/20 06:22:17;;;;;;;24.88;15.85;;;;;;;-2.35;100.00;101300.25;5038470;28;20552;-73
2022/11/20 06:24:42;;;;;;;28.73;17.08;;;;;;;-2.35;100.00;101302.94;5045106;28;20029;-72
2022/11/20 06:27:08;;;;;;;23.73;14.93;;;;;;;-2.35;100.00;101308.31;5027879;28;20481;-74
2022/11/20 06:29:33;;;;;;;26.85;15.65;;;;;;;-2.37;100.00;101304.00;5045902;28;20036;-74
2022/11/20 06:31:59;;;;;;;26.27;15.85;;;;;;;-2.35;100.00;101310.97;5022393;28;20028;-74
2022/11/20 06:34:24;;;;;;;24.75;15.32;;;;;;;-2.35;100.00;101308.31;5053381;28;20025;-73
2022/11/20 06:36:49;;;;;;;23.00;14.80;;;;;;;-2.39;100.00;101319.34;5033045;28;20028;-74
2022/11/20 06:39:15;;;;;;;24.30;15.93;;;;;;;-2.36;100.00;101311.94;5042245;28;20030;-74
2022/11/20 06:41:40;;;;;;;26.45;15.48;;;;;;;-2.36;100.00;101306.59;5025783;28;20044;-74
2022/11/20 06:44:05;;;;;;;29.98;16.33;;;;;;;-2.26;100.00;101313.03;5027050;28;20475;-73
2022/11/20 06:46:31;;;;;;;23.33;14.48;;;;;;;-2.24;100.00;101304.91;5024672;28;20128;-74
2022/11/20 06:49:00;;;;;;;25.98;15.52;;;;;;;-2.22;100.00;101309.19;5026727;28;20025;-74
2022/11/20 06:51:26;;;;;;;27.58;16.10;;;;;;;-2.20;100.00;101312.63;5039638;28;20040;-75
2022/11/20 06:53:52;;;;;;;24.52;15.20;;;;;;;-2.17;100.00;101312.44;5043915;28;20033;-74
2022/11/20 06:56:18;;;;;;;28.37;16.93;;;;;;;-2.13;100.00;101310.38;5030797;28;20404;-74
2022/11/20 06:58:44;;;;;;;24.83;15.63;;;;;;;-2.09;100.00;101298.50;5043121;28;20042;-74
2022/11/20 07:01:12;;;;;;;23.92;15.77;;;;;;;-2.07;100.00;101297.41;5023394;28;20465;-74
2022/11/20 07:03:37;;;;;;;30.52;17.70;;;;;;;-1.98;100.00;101285.19;5043103;28;20037;-74
2022/11/20 07:06:04;;;;;;;25.08;16.52;;;;;;;-1.93;100.00;101286.56;5044817;28;20036;-76
2022/11/20 07:08:30;;;;;;;28.75;16.58;;;;;;;-1.85;100.00;101294.94;5033898;28;20025;-74
2022/11/20 07:11:00;;;;;;;33.25;17.63;;;;;;;-1.80;100.00;101297.28;5032977;28;20107;-74
2022/11/20 07:13:26;;;;;;;27.08;17.05;;;;;;;-1.75;100.00;101298.69;5044550;28;20086;-74
2022/11/20 07:15:55;;;;;;;27.33;17.63;;;;;;;-1.72;100.00;101303.84;5042537;28;20334;-73
2022/11/20 07:18:20;;;;;;;34.30;17.25;;;;;;;-1.66;100.00;101303.41;5047552;28;20385;-73
2022/11/20 07:20:46;;;;;;;29.75;17.45;;;;;;;-1.58;100.00;101310.91;5026112;28;20037;-75
2022/11/20 07:23:11;;;;;;;27.05;17.50;;;;;;;-1.52;100.00;101302.41;5024559;28;20044;-73
2022/11/20 07:25:37;;;;;;;27.92;17.40;;;;;;;-1.51;100.00;101305.00;5022336;28;20040;-74
2022/11/20 07:28:03;;;;;;;28.10;17.83;;;;;;;-1.47;100.00;101293.06;5038736;28;20469;-72
2022/11/20 07:30:29;;;;;;;27.07;17.23;;;;;;;-1.35;100.00;101302.09;5045708;28;20040;-74
2022/11/20 07:32:56;;;;;;;28.05;18.40;;;;;;;-1.33;100.00;101287.56;5046080;28;20638;-77
2022/11/20 07:35:22;;;;;;;29.85;18.42;;;;;;;-1.30;100.00;101295.41;5047801;28;20043;-74
2022/11/20 07:37:48;;;;;;;28.73;18.45;;;;;;;-1.25;100.00;101298.59;5039855;28;20044;-73
2022/11/20 07:40:14;;;;;;;29.08;17.83;;;;;;;-1.21;100.00;101291.19;5022185;28;20502;-72
2022/11/20 07:42:51;;;;;;;29.90;18.20;;;;;;;-1.15;100.00;101296.97;5045450;28;20040;-73
2022/11/20 07:45:17;;;;;;;37.78;18.50;;;;;;;-1.07;100.00;101301.78;5037761;28;20037;-73
2022/11/20 07:47:43;;;;;;;30.27;18.23;;;;;;;-1.03;100.00;101298.75;5044542;28;20036;-73
2022/11/20 07:50:09;;;;;;;31.95;19.35;;;;;;;-0.98;100.00;101310.03;5039212;28;20349;-73
2022/11/20 07:52:34;;;;;;;33.20;19.23;;;;;;;-0.93;100.00;101305.16;5036366;28;20030;-73
2022/11/20 07:54:59;;;;;;;29.20;18.80;;;;;;;-0.85;100.00;101305.47;5039105;28;20053;-72
2022/11/20 07:57:25;;;;;;;29.08;17.42;;;;;;;-0.81;100.00;101295.34;5039899;28;20504;-73
2022/11/20 07:59:50;;;;;;;28.95;17.40;;;;;;;-0.76;100.00;101285.94;5045798;28;20032;-72
2022/11/20 08:02:15;;;;;;;30.55;18.60;;;;;;;-0.71;100.00;101294.53;5036068;28;20033;-73
2022/11/20 08:04:41;;;;;;;29.48;17.63;;;;;;;-0.64;100.00;101284.19;5038438;28;20448;-73
2022/11/20 08:07:06;;;;;;;33.80;18.73;;;;;;;-0.57;100.00;101291.66;5039630;28;20116;-73
2022/11/20 08:09:32;;;;;;;36.88;18.08;;;;;;;-0.52;100.00;101294.00;5044369;28;20473;-73
2022/11/20 08:14:41;;;;;;;26.67;17.52;;;;;;;-0.43;100.00;101286.06;5043924;28;20454;-73
2022/11/20 08:17:06;;;;;;;26.05;17.55;;;;;;;-0.34;100.00;101277.31;5038641;28;20103;-73
2022/11/20 08:19:31;;;;;;;28.42;17.48;;;;;;;-0.28;100.00;101272.31;5044261;28;20136;-72
2022/11/20 08:21:57;;;;;;;33.10;19.02;;;;;;;-0.21;100.00;101276.25;5040339;28;20361;-72
2022/11/20 08:24:22;;;;;;;33.15;18.88;;;;;;;-0.11;100.00;101273.69;5042512;28;20029;-73
2022/11/20 08:26:47;;;;;;;35.42;19.05;;;;;;;-0.09;100.00;101274.44;5042908;28;22420;-73
2022/11/20 08:29:13;;;;;;;29.05;18.40;;;;;;;0.07;100.00;101288.44;5040923;28;20021;-73
2022/11/20 08:31:38;;;;;;;27.77;17.95;;;;;;;0.13;100.00;101294.22;5040206;28;20160;-73
2022/11/20 08:34:03;;;;;;;30.30;18.95;;;;;;;0.14;100.00;101289.66;5035005;28;20027;-73
2022/11/20 08:36:33;;;;;;;33.20;19.13;;;;;;;0.24;100.00;101299.59;5040076;28;20031;-73
2022/11/20 08:38:59;;;;;;;31.52;18.83;;;;;;;0.29;100.00;101305.47;5042178;28;20053;-73
2022/11/20 08:41:25;;;;;;;30.90;17.98;;;;;;;0.29;100.00;101296.53;5040416;28;20393;-73
2022/11/20 08:43:52;;;;;;;29.55;18.33;;;;;;;0.33;100.00;101279.16;5023172;28;20091;-73
2022/11/20 08:46:17;;;;;;;29.70;18.40;;;;;;;0.36;100.00;101273.50;5042044;28;20052;-73
2022/11/20 08:48:44;;;;;;;25.80;17.83;;;;;;;0.38;100.00;101263.50;5043680;28;20021;-73
2022/11/20 08:51:10;;;;;;;28.20;17.60;;;;;;;0.49;100.00;101263.47;5042613;28;20063;-73
2022/11/20 08:53:35;;;;;;;30.17;17.87;;;;;;;0.51;100.00;101267.78;5036116;28;20041;-73
2022/11/20 08:56:01;;;;;;;25.92;16.63;;;;;;;0.61;100.00;101263.34;5038857;28;20746;-73
2022/11/20 08:58:26;;;;;;;28.38;17.92;;;;;;;0.65;100.00;101263.97;5040297;28;20036;-73
2022/11/20 09:00:52;;;;;;;29.58;18.42;;;;;;;0.72;100.00;101265.16;5039565;28;20028;-73
2022/11/20 09:03:17;;;;;;;29.25;17.83;;;;;;;0.69;100.00;101260.88;5042428;28;20021;-73
2022/11/20 09:05:42;;;;;;;30.27;19.08;;;;;;;0.77;100.00;101266.53;5024325;28;20095;-73
2022/11/20 09:08:08;;;;;;;31.65;19.33;;;;;;;0.81;100.00;101264.44;5049707;28;20563;-73
2022/11/20 09:10:33;;;;;;;36.50;18.77;;;;;;;0.85;100.00;101261.34;5042845;28;20025;-72
2022/11/20 09:12:59;;;;;;;34.88;20.05;;;;;;;0.89;100.00;101264.66;5040580;28;20441;-73
2022/11/20 09:15:25;;;;;;;31.17;19.67;;;;;;;0.94;100.00;101252.50;5044827;28;20104;-73
2022/11/20 09:17:58;;;;;;;28.90;18.27;;;;;;;0.99;100.00;101241.34;5048488;28;20032;-73
2022/11/20 09:20:24;;;;;;;27.10;17.52;;;;;;;1.03;100.00;101240.09;5048236;28;20305;-73
2022/11/20 09:22:50;;;;;;;26.63;17.27;;;;;;;1.05;100.00;101246.22;5044715;28;20041;-73
2022/11/20 09:25:15;;;;;;;31.88;19.52;;;;;;;1.11;100.00;101240.31;5043993;28;20044;-73
2022/11/20 09:27:45;;;;;;;34.35;18.77;;;;;;;1.13;100.00;101231.09;5027801;28;20584;-73
2022/11/20 09:30:12;;;;;;;32.53;18.92;;;;;;;1.22;100.00;101232.19;5039125;28;20374;-73
2022/11/20 09:32:42;;;;;;;37.33;19.40;;;;;;;1.35;100.00;101217.53;5047149;28;20032;-73
2022/11/20 09:35:08;;;;;;;33.70;19.70;;;;;;;1.38;100.00;101216.41;5041629;28;20034;-73
2022/11/20 09:37:34;;;;;;;36.50;21.13;;;;;;;1.43;100.00;101219.56;5024446;28;20472;-73
2022/11/20 09:39:59;;;;;;;39.45;20.55;;;;;;;1.38;100.00;101209.19;5035841;28;20297;-73
2022/11/20 09:42:39;;;;;;;36.95;20.80;;;;;;;1.43;100.00;101203.38;5043356;28;20477;-73
2022/11/20 09:45:15;;;;;;;34.08;19.63;;;;;;;1.48;100.00;101199.31;5042689;28;20025;-73
2022/11/20 09:47:54;;;;;;;28.45;18.95;;;;;;;1.58;100.00;101194.00;5026748;28;20025;-74
2022/11/20 09:50:28;;;;;;;33.50;19.63;;;;;;;1.61;100.00;101188.34;5040279;28;20033;-74
2022/11/20 09:53:03;;;;;;;31.45;19.65;;;;;;;1.64;100.00;101175.44;5040595;28;20522;-74
2022/11/20 09:55:30;;;;;;;36.75;19.92;;;;;;;1.70;100.00;101176.72;5047033;28;20116;-74
2022/11/20 09:57:57;;;;;;;36.33;20.17;;;;;;;1.72;100.00;101170.19;5037007;28;20052;-74
2022/11/20 10:00:23;;;;;;;36.63;21.13;;;;;;;1.76;100.00;101162.72;5030439;28;20083;-74
2022/11/20 10:02:52;;;;;;;41.50;22.48;;;;;;;1.82;100.00;101154.06;5038015;28;20477;-74
2022/11/20 10:05:31;;;;;;;40.70;21.58;;;;;;;1.95;100.00;101138.50;5023543;28;20029;-74
2022/11/20 10:08:23;;;;;;;39.92;23.00;;;;;;;2.10;100.00;101139.84;5046024;28;20029;-74
2022/11/20 10:10:56;;;;;;;39.05;22.27;;;;;;;2.19;100.00;101130.94;5020864;28;20025;-74
2022/11/20 10:13:27;;;;;;;40.72;23.17;;;;;;;2.28;100.00;101133.66;5027922;28;20029;-74
2022/11/20 10:15:52;;;;;;;44.63;23.80;;;;;;;2.31;100.00;101122.53;5043108;28;20032;-74
2022/11/20 10:18:42;;;;;;;40.17;22.95;;;;;;;2.32;100.00;101124.28;5039773;28;20033;-74
2022/11/20 10:21:29;;;;;;;41.58;24.23;;;;;;;2.29;100.00;101121.84;5046518;28;20029;-74
2022/11/20 10:24:01;;;;;;;45.03;22.90;;;;;;;2.30;100.00;101120.84;5048218;28;20166;-74
2022/11/20 10:26:39;;;;;;;46.38;22.90;;;;;;;2.38;100.00;101118.31;5039849;28;20511;-74
2022/11/20 10:29:19;;;;;;;41.83;24.13;;;;;;;2.41;100.00;101111.78;5026428;28;20124;-74
2022/11/20 10:31:47;;;;;;;43.65;24.58;;;;;;;2.43;100.00;101099.84;5046099;28;20037;-75
2022/11/20 10:34:21;;;;;;;41.25;24.05;;;;;;;2.40;100.00;101102.81;5043004;28;20024;-74
2022/11/20 10:36:52;;;;;;;39.95;23.15;;;;;;;2.52;100.00;101098.97;5041239;28;20389;-74
2022/11/20 10:39:28;;;;;;;40.78;22.75;;;;;;;2.51;99.70;101096.44;5040542;28;20120;-73
2022/11/20 10:41:54;;;;;;;40.70;23.55;;;;;;;2.54;99.78;101091.59;5045219;28;20035;-75
2022/11/20 10:47:16;;;;;;;44.42;24.42;;;;;;;2.54;99.69;101093.44;5044907;28;20071;-73
2022/11/20 10:49:43;;;;;;;40.00;22.08;;;;;;;2.54;100.00;101090.75;5047006;28;20787;-74
2022/11/20 10:52:36;;;;;;;41.97;22.92;;;;;;;2.55;100.00;101090.59;5040832;28;20491;-74
2022/11/20 10:55:30;;;;;;;41.10;23.00;;;;;;;2.66;100.00;101085.06;5031314;28;20040;-74
2022/11/20 10:58:13;;;;;;;42.20;23.13;;;;;;;2.66;100.00;101081.50;5037616;28;20028;-74
2022/11/20 11:00:38;;;;;;;37.25;21.92;;;;;;;2.69;100.00;101070.41;5043644;28;20098;-74
2022/11/20 11:03:22;;;;;;;41.20;22.95;;;;;;;2.76;100.00;101063.44;5026435;28;20025;-74
2022/11/20 11:05:54;;;;;;;40.67;22.58;;;;;;;2.78;100.00;101050.63;5042270;28;20052;-74
2022/11/20 11:08:20;;;;;;;40.95;22.13;;;;;;;2.87;100.00;101038.94;5046024;28;20031;-74
2022/11/20 11:10:56;;;;;;;42.45;23.30;;;;;;;2.90;100.00;101035.97;5047775;28;20040;-74
2022/11/20 11:13:24;;;;;;;45.33;24.85;;;;;;;2.97;100.00;101031.66;5040323;28;20068;-74
2022/11/20 11:15:50;;;;;;;44.80;25.38;;;;;;;3.01;100.00;101038.50;5040989;28;20043;-74